createdAt,value
2024-01-01T00:01:58.324Z,51.40
2024-01-01T00:04:27.834Z,49.20
2024-01-01T00:06:54.613Z,41.70
2024-01-01T00:09:21.386Z,34.80
2024-01-01T00:11:48.465Z,36.30
2024-01-01T00:14:15.491Z,33.40
2024-01-01T00:16:43.175Z,33.00
2024-01-01T00:19:10.426Z,30.40
2024-01-01T00:21:37.251Z,37.70
2024-01-01T00:24:04.104Z,32.30
2024-01-01T00:26:30.961Z,31.10
2024-01-01T00:28:57.796Z,33.70
2024-01-01T00:31:24.646Z,34.50
2024-01-01T00:33:51.727Z,35.70
2024-01-01T00:36:18.704Z,33.30
2024-01-01T00:38:46.042Z,30.10
2024-01-01T00:41:17.644Z,34.30
2024-01-01T00:43:44.744Z,31.30
2024-01-01T00:46:12.280Z,34.90
2024-01-01T00:48:39.466Z,35.60
2024-01-01T00:51:06.621Z,36.40
2024-01-01T00:53:34.913Z,35.70
2024-01-01T00:56:01.923Z,36.00
2024-01-01T00:58:28.887Z,44.10
2024-01-01T01:00:57.743Z,42.20
2024-01-01T01:03:25.011Z,46.10
2024-01-01T01:05:52.314Z,40.80
2024-01-01T01:08:19.449Z,37.10
2024-01-01T01:10:47.321Z,41.70
2024-01-01T01:13:14.129Z,38.70
2024-01-01T01:15:40.934Z,41.70
2024-01-01T01:18:09.120Z,37.10
2024-01-01T01:20:36.207Z,37.50
2024-01-01T01:23:03.437Z,45.20
2024-01-01T01:25:31.304Z,41.80
2024-01-01T01:27:59.233Z,42.20
2024-01-01T01:30:26.089Z,44.00
2024-01-01T01:32:53.016Z,46.50
2024-01-01T01:35:19.891Z,41.20
2024-01-01T01:37:46.694Z,48.80
2024-01-01T01:40:13.850Z,49.90
2024-01-01T01:42:40.929Z,37.50
2024-01-01T01:45:08.250Z,40.40
2024-01-01T01:47:36.769Z,40.00
2024-01-01T01:50:05.336Z,37.10
2024-01-01T01:52:32.347Z,44.90
2024-01-01T01:54:59.473Z,50.10
2024-01-01T01:57:27.680Z,41.40
2024-01-01T01:59:54.852Z,37.70
2024-01-01T02:02:24.869Z,38.20
2024-01-01T02:04:51.978Z,38.30
2024-01-01T02:07:18.984Z,33.20
2024-01-01T02:09:45.946Z,35.50
2024-01-01T02:12:12.781Z,37.20
2024-01-01T02:14:39.578Z,39.10
2024-01-01T02:17:06.617Z,36.70
2024-01-01T02:19:34.798Z,39.30
2024-01-01T02:22:03.023Z,35.90
2024-01-01T02:24:29.917Z,39.80
2024-01-01T02:26:56.748Z,32.60
2024-01-01T02:29:24.517Z,37.70
2024-01-01T02:31:51.771Z,37.10
2024-01-01T02:34:19.938Z,31.40
2024-01-01T02:36:46.729Z,33.90
2024-01-01T02:39:13.533Z,33.90
2024-01-01T02:41:41.063Z,34.00
2024-01-01T02:44:08.431Z,33.10
2024-01-01T02:46:35.625Z,33.00
2024-01-01T02:49:02.548Z,30.80
2024-01-01T02:51:29.376Z,29.00
2024-01-01T02:53:58.382Z,34.10
2024-01-01T02:56:25.628Z,33.50
2024-01-01T02:58:54.475Z,38.90
2024-01-01T03:01:21.768Z,34.70
2024-01-01T03:03:48.608Z,35.40
2024-01-01T03:06:19.519Z,35.00
2024-01-01T03:08:46.997Z,31.40
2024-01-01T03:11:14.080Z,32.60
2024-01-01T03:13:41.088Z,32.10
2024-01-01T03:16:09.338Z,33.30
2024-01-01T03:18:36.689Z,30.50
2024-01-01T03:21:05.062Z,33.60
2024-01-01T03:23:32.189Z,32.30
2024-01-01T03:25:59.198Z,30.90
2024-01-01T03:28:26.092Z,33.40
2024-01-01T03:30:53.464Z,34.10
2024-01-01T03:33:20.469Z,31.30
2024-01-01T03:35:47.407Z,30.50
2024-01-01T03:38:14.332Z,34.90
2024-01-01T03:40:41.914Z,41.20
2024-01-01T03:43:08.947Z,38.80
2024-01-01T03:45:35.928Z,52.30
2024-01-01T03:48:03.638Z,56.20
2024-01-01T03:50:30.747Z,60.60
2024-01-01T03:52:57.864Z,56.70
2024-01-01T03:55:24.838Z,56.80
2024-01-01T03:57:51.786Z,57.00
2024-01-01T04:00:18.880Z,55.60
2024-01-01T04:02:47.845Z,56.60
2024-01-01T04:05:15.046Z,61.80
2024-01-01T04:07:42.542Z,62.80
2024-01-01T04:10:10.801Z,61.00
2024-01-01T04:12:38.580Z,62.40
2024-01-01T04:15:06.674Z,58.00
2024-01-01T04:17:34.123Z,81.30
2024-01-01T04:20:01.220Z,63.80
2024-01-01T04:22:28.149Z,71.40
2024-01-01T04:24:55.140Z,70.80
2024-01-01T04:27:22.000Z,70.30
2024-01-01T04:29:49.478Z,70.10
2024-01-01T04:32:16.343Z,64.40
2024-01-01T04:34:43.200Z,68.40
2024-01-01T04:37:10.068Z,61.10
2024-01-01T04:39:36.900Z,63.00
2024-01-01T04:42:04.765Z,59.80
2024-01-01T04:44:31.786Z,58.40
2024-01-01T04:46:59.110Z,60.20
2024-01-01T04:49:26.018Z,57.80
2024-01-01T04:51:53.459Z,61.60
2024-01-01T04:54:20.340Z,65.10
2024-01-01T04:56:47.134Z,68.00
2024-01-01T04:59:14.462Z,66.90
2024-01-01T05:01:41.360Z,62.80
2024-01-01T05:04:08.302Z,49.80
2024-01-01T05:06:35.295Z,49.70
2024-01-01T05:09:02.098Z,50.30
2024-01-01T05:11:30.706Z,56.20
2024-01-01T05:13:58.093Z,54.90
2024-01-01T05:16:25.007Z,55.50
2024-01-01T05:18:52.108Z,57.10
2024-01-01T05:21:19.029Z,62.60
2024-01-01T05:23:45.950Z,58.90
2024-01-01T05:26:13.009Z,67.40
2024-01-01T05:28:40.180Z,66.00
2024-01-01T05:31:06.997Z,53.20
2024-01-01T05:33:35.075Z,64.40
2024-01-01T05:36:02.298Z,72.20
2024-01-01T05:38:29.949Z,60.60
2024-01-01T05:40:56.727Z,59.90
2024-01-01T05:43:23.933Z,73.10
2024-01-01T05:45:50.773Z,64.70
2024-01-01T05:48:25.693Z,72.20
2024-01-01T05:50:56.965Z,64.20
2024-01-01T05:53:23.857Z,73.10
2024-01-01T05:55:51.332Z,77.10
2024-01-01T05:58:19.252Z,78.40
2024-01-01T06:00:46.504Z,84.80
2024-01-01T06:03:13.653Z,88.30
2024-01-01T06:05:41.701Z,81.50
2024-01-01T06:08:08.899Z,78.30
2024-01-01T06:10:36.279Z,75.90
2024-01-01T06:13:04.067Z,78.40
2024-01-01T06:15:30.882Z,78.20
2024-01-01T06:17:58.021Z,69.20
2024-01-01T06:20:25.063Z,65.90
2024-01-01T06:22:51.969Z,68.80
2024-01-01T06:25:19.370Z,69.20
2024-01-01T06:27:46.619Z,69.60
2024-01-01T06:30:13.624Z,72.10
2024-01-01T06:32:40.559Z,74.50
2024-01-01T06:35:08.178Z,71.50
2024-01-01T06:37:35.214Z,69.10
2024-01-01T06:40:02.843Z,76.10
2024-01-01T06:42:29.888Z,76.30
2024-01-01T06:45:08.212Z,75.10
2024-01-01T06:47:35.295Z,68.40
2024-01-01T06:50:02.419Z,82.70
2024-01-01T06:52:29.383Z,63.70
2024-01-01T06:54:56.574Z,69.60
2024-01-01T06:57:23.390Z,61.50
2024-01-01T06:59:50.190Z,68.50
2024-01-01T07:02:17.218Z,69.10
2024-01-01T07:04:44.221Z,61.00
2024-01-01T07:07:11.830Z,63.50
2024-01-01T07:09:39.580Z,61.10
2024-01-01T07:12:21.612Z,64.00
2024-01-01T07:14:49.177Z,69.70
2024-01-01T07:17:16.946Z,76.70
2024-01-01T07:19:44.202Z,70.50
2024-01-01T07:22:11.392Z,75.70
2024-01-01T07:24:38.814Z,74.90
2024-01-01T07:27:06.484Z,76.00
2024-01-01T07:29:33.314Z,70.70
2024-01-01T07:32:00.245Z,70.00
2024-01-01T07:34:27.417Z,58.60
2024-01-01T07:36:56.353Z,53.80
2024-01-01T07:39:24.696Z,54.70
2024-01-01T07:41:54.840Z,55.60
2024-01-01T07:44:22.775Z,51.50
2024-01-01T07:46:50.361Z,49.50
2024-01-01T07:49:18.087Z,52.70
2024-01-01T07:51:45.137Z,52.90
2024-01-01T07:54:12.154Z,45.80
2024-01-01T07:56:44.939Z,47.60
2024-01-01T07:59:13.576Z,49.70
2024-01-01T08:01:41.720Z,47.90
2024-01-01T08:04:09.032Z,44.50
2024-01-01T08:06:37.582Z,44.90
2024-01-01T08:09:04.950Z,46.00
2024-01-01T08:11:32.006Z,46.90
2024-01-01T08:13:59.349Z,43.90
2024-01-01T08:16:27.101Z,48.60
2024-01-01T08:18:54.665Z,52.30
2024-01-01T08:21:22.641Z,55.00
2024-01-01T08:23:52.353Z,52.30
2024-01-01T08:26:20.960Z,55.90
2024-01-01T08:28:54.013Z,56.70
2024-01-01T08:31:21.974Z,58.60
2024-01-01T08:33:50.589Z,58.10
2024-01-01T08:36:17.927Z,54.40
2024-01-01T08:38:44.726Z,57.90
2024-01-01T08:41:13.032Z,48.80
2024-01-01T08:43:41.092Z,56.70
2024-01-01T08:46:07.875Z,46.10
2024-01-01T08:48:35.030Z,50.60
2024-01-01T08:51:02.650Z,50.80
2024-01-01T08:53:31.592Z,39.70
2024-01-01T08:56:00.136Z,42.60
2024-01-01T08:58:27.756Z,47.70
2024-01-01T09:00:54.637Z,49.20
2024-01-01T09:03:21.492Z,42.50
2024-01-01T09:05:48.517Z,38.40
2024-01-01T09:08:15.460Z,34.30
2024-01-01T09:10:42.377Z,30.70
2024-01-01T09:13:09.526Z,23.80
2024-01-01T09:15:36.373Z,24.30
2024-01-01T09:18:03.444Z,23.10
2024-01-01T09:20:30.839Z,23.80
2024-01-01T09:22:58.163Z,23.50
2024-01-01T09:25:25.097Z,20.90
2024-01-01T09:27:52.117Z,21.30
2024-01-01T09:30:19.063Z,21.90
2024-01-01T09:32:46.037Z,21.60
2024-01-01T09:35:13.198Z,23.40
2024-01-01T09:37:40.122Z,20.70
2024-01-01T09:40:07.824Z,19.80
2024-01-01T09:42:34.815Z,23.10
2024-01-01T09:45:04.535Z,23.10
2024-01-01T09:47:33.936Z,22.60
2024-01-01T09:50:01.192Z,22.30
2024-01-01T09:52:28.372Z,21.70
2024-01-01T09:54:55.565Z,22.10
2024-01-01T09:57:22.651Z,16.60
2024-01-01T09:59:49.502Z,18.70
2024-01-01T10:02:16.328Z,20.00
2024-01-01T10:04:44.118Z,16.00
2024-01-01T10:07:10.978Z,16.10
2024-01-01T10:09:50.728Z,15.70
2024-01-01T10:12:23.212Z,14.50
2024-01-01T10:14:51.802Z,15.00
2024-01-01T10:17:19.875Z,16.60
2024-01-01T10:19:57.931Z,14.50
2024-01-01T10:22:32.138Z,17.30
2024-01-01T10:25:13.989Z,16.30
2024-01-01T10:27:44.932Z,14.70
2024-01-01T10:30:12.699Z,12.10
2024-01-01T10:32:42.172Z,11.70
2024-01-01T10:35:11.510Z,9.60
2024-01-01T10:37:39.861Z,8.90
2024-01-01T10:40:09.050Z,6.70
2024-01-01T10:42:36.046Z,8.20
2024-01-01T10:45:06.608Z,5.30
2024-01-01T10:47:34.498Z,8.30
2024-01-01T10:50:31.836Z,6.40
2024-01-01T10:53:08.158Z,7.60
2024-01-01T10:55:53.335Z,8.30
2024-01-01T10:58:25.291Z,5.90
2024-01-01T11:01:12.596Z,5.70
2024-01-01T11:03:40.973Z,5.40
2024-01-01T11:06:32.930Z,6.40
2024-01-01T11:09:19.974Z,4.30
2024-01-01T11:11:47.980Z,4.30
2024-01-01T11:14:46.792Z,4.40
2024-01-01T11:17:23.794Z,5.30
2024-01-01T11:19:52.845Z,4.00
2024-01-01T11:22:32.742Z,4.30
2024-01-01T11:25:01.412Z,5.50
2024-01-01T11:27:35.719Z,3.00
2024-01-01T11:30:08.816Z,4.00
2024-01-01T11:32:36.785Z,3.30
2024-01-01T11:35:05.907Z,3.80
2024-01-01T11:37:34.010Z,4.70
2024-01-01T11:40:05.864Z,5.50
2024-01-01T11:42:33.224Z,4.90
2024-01-01T11:45:12.759Z,5.20
2024-01-01T11:47:41.218Z,4.80
2024-01-01T11:50:09.870Z,5.90
2024-01-01T11:52:37.204Z,6.60
2024-01-01T11:55:04.694Z,5.30
2024-01-01T11:57:31.939Z,7.20
2024-01-01T11:59:59.291Z,4.60
2024-01-01T12:02:26.721Z,7.70
2024-01-01T12:04:56.103Z,7.00
2024-01-01T12:07:30.870Z,3.60
2024-01-01T12:10:07.878Z,15.00
2024-01-01T12:12:40.319Z,12.10
2024-01-01T12:15:17.682Z,13.90
2024-01-01T12:17:49.513Z,13.50
2024-01-01T12:20:18.326Z,12.00
2024-01-01T12:22:46.528Z,11.40
2024-01-01T12:25:18.327Z,11.00
2024-01-01T12:27:46.299Z,12.70
2024-01-01T12:30:28.942Z,13.10
2024-01-01T12:32:56.092Z,10.80
2024-01-01T12:35:23.216Z,8.90
2024-01-01T12:37:51.396Z,9.10
2024-01-01T12:40:18.555Z,10.50
2024-01-01T12:42:46.140Z,11.30
2024-01-01T12:45:17.916Z,12.80
2024-01-01T12:47:45.015Z,10.00
2024-01-01T12:50:12.696Z,9.80
2024-01-01T12:52:40.170Z,11.00
2024-01-01T12:55:08.494Z,12.20
2024-01-01T12:57:35.201Z,12.70
2024-01-01T13:00:02.480Z,10.50
2024-01-01T13:02:29.939Z,13.70
2024-01-01T13:04:56.777Z,13.40
2024-01-01T13:07:24.040Z,13.10
2024-01-01T13:09:50.983Z,12.50
2024-01-01T13:12:18.233Z,13.60
2024-01-01T13:14:46.052Z,12.40
2024-01-01T13:17:13.487Z,12.40
2024-01-01T13:19:40.479Z,15.00
2024-01-01T13:22:09.378Z,12.60
2024-01-01T13:24:37.214Z,10.60
2024-01-01T13:27:04.608Z,12.50
2024-01-01T13:29:32.280Z,12.80
2024-01-01T13:31:59.055Z,10.50
2024-01-01T13:34:26.044Z,12.90
2024-01-01T13:36:53.335Z,14.20
2024-01-01T13:39:20.173Z,13.20
2024-01-01T13:41:47.844Z,13.10
2024-01-01T13:44:14.898Z,11.80
2024-01-01T13:46:42.020Z,12.50
2024-01-01T13:49:08.910Z,12.70
2024-01-01T13:51:35.919Z,10.10
2024-01-01T13:54:02.940Z,14.60
2024-01-01T13:56:29.751Z,15.10
2024-01-01T13:58:56.593Z,14.70
2024-01-01T14:01:23.460Z,13.90
2024-01-01T14:03:51.386Z,15.70
2024-01-01T14:06:18.408Z,15.20
2024-01-01T14:08:45.374Z,14.00
2024-01-01T14:11:12.687Z,13.80
2024-01-01T14:13:39.480Z,16.50
2024-01-01T14:16:06.400Z,15.30
2024-01-01T14:18:33.297Z,17.30
2024-01-01T14:21:00.119Z,16.90
2024-01-01T14:23:26.885Z,15.80
2024-01-01T14:25:54.368Z,16.30
2024-01-01T14:28:21.242Z,18.00
2024-01-01T14:30:52.849Z,16.70
2024-01-01T14:33:23.237Z,15.40
2024-01-01T14:35:50.122Z,19.80
2024-01-01T14:38:17.564Z,19.10
2024-01-01T14:40:44.810Z,22.90
2024-01-01T14:43:11.546Z,29.50
2024-01-01T14:45:38.332Z,21.80
2024-01-01T14:48:05.936Z,18.30
2024-01-01T14:50:39.845Z,22.10
2024-01-01T14:53:08.309Z,20.90
2024-01-01T14:55:36.692Z,19.10
2024-01-01T14:58:03.567Z,20.70
2024-01-01T15:00:31.437Z,21.90
2024-01-01T15:02:58.826Z,21.50
2024-01-01T15:05:27.395Z,20.50
2024-01-01T15:07:54.756Z,20.80
2024-01-01T15:10:21.492Z,18.60
2024-01-01T15:12:48.600Z,19.90
2024-01-01T15:15:16.244Z,17.00
2024-01-01T15:17:44.725Z,21.20
2024-01-01T15:20:12.430Z,20.30
2024-01-01T15:22:39.689Z,21.00
2024-01-01T15:25:06.613Z,21.20
2024-01-01T15:27:33.299Z,16.70
2024-01-01T15:30:00.509Z,20.00
2024-01-01T15:32:28.220Z,23.50
2024-01-01T15:34:55.248Z,21.20
2024-01-01T15:37:22.163Z,20.80
2024-01-01T15:39:49.025Z,20.20
2024-01-01T15:42:15.727Z,22.80
2024-01-01T15:44:42.710Z,21.70
2024-01-01T15:47:10.341Z,21.50
2024-01-01T15:49:37.241Z,16.80
2024-01-01T15:52:11.249Z,22.30
2024-01-01T15:54:41.429Z,23.30
2024-01-01T15:57:09.590Z,24.10
2024-01-01T15:59:37.067Z,29.90
2024-01-01T16:02:07.821Z,23.20
2024-01-01T16:04:37.532Z,21.90
2024-01-01T16:07:04.661Z,22.20
2024-01-01T16:09:31.761Z,21.90
2024-01-01T16:11:58.786Z,24.00
2024-01-01T16:14:26.002Z,22.50
2024-01-01T16:16:56.557Z,21.10
2024-01-01T16:19:33.198Z,21.10
2024-01-01T16:22:01.396Z,21.20
2024-01-01T16:24:28.287Z,19.90
2024-01-01T16:26:55.078Z,23.80
2024-01-01T16:29:21.899Z,22.00
2024-01-01T16:31:49.062Z,23.60
2024-01-01T16:34:16.221Z,23.00
2024-01-01T16:36:46.158Z,22.50
2024-01-01T16:39:15.822Z,22.60
2024-01-01T16:41:42.539Z,19.70
2024-01-01T16:44:10.037Z,16.70
2024-01-01T16:46:37.227Z,19.60
2024-01-01T16:49:04.030Z,17.70
2024-01-01T16:51:30.789Z,19.50
2024-01-01T16:53:57.960Z,20.60
2024-01-01T16:56:26.764Z,20.50
2024-01-01T16:58:53.981Z,19.10
2024-01-01T17:01:24.023Z,22.20
2024-01-01T17:03:50.903Z,23.40
2024-01-01T17:06:21.542Z,21.70
2024-01-01T17:08:49.057Z,21.30
2024-01-01T17:11:16.996Z,20.60
2024-01-01T17:13:44.802Z,23.50
2024-01-01T17:16:14.821Z,20.80
2024-01-01T17:18:44.276Z,18.50
2024-01-01T17:21:11.646Z,17.10
2024-01-01T17:23:39.116Z,20.40
2024-01-01T17:26:05.996Z,22.10
2024-01-01T17:28:34.914Z,21.80
2024-01-01T17:31:03.101Z,21.80
2024-01-01T17:33:29.923Z,19.30
2024-01-01T17:35:58.911Z,19.80
2024-01-01T17:38:26.380Z,21.20
2024-01-01T17:40:55.161Z,21.90
2024-01-01T17:43:22.828Z,21.50
2024-01-01T17:45:49.768Z,24.20
2024-01-01T17:48:16.608Z,21.80
2024-01-01T17:50:43.657Z,21.50
2024-01-01T17:53:10.915Z,17.40
2024-01-01T17:55:37.686Z,19.10
2024-01-01T17:58:04.464Z,18.60
2024-01-01T18:00:31.693Z,15.60
2024-01-01T18:02:58.841Z,16.90
2024-01-01T18:05:26.179Z,16.40
2024-01-01T18:07:53.629Z,16.30
2024-01-01T18:10:20.386Z,17.90
2024-01-01T18:12:47.457Z,18.70
2024-01-01T18:15:15.901Z,18.10
2024-01-01T18:17:43.316Z,19.90
2024-01-01T18:20:11.078Z,18.20
2024-01-01T18:22:39.306Z,19.70
2024-01-01T18:25:06.690Z,17.90
2024-01-01T18:27:35.198Z,19.30
2024-01-01T18:30:02.805Z,19.70
2024-01-01T18:32:31.332Z,21.20
2024-01-01T18:34:58.284Z,17.50
2024-01-01T18:37:25.143Z,19.50
2024-01-01T18:39:52.156Z,19.80
2024-01-01T18:42:18.955Z,20.80
2024-01-01T18:44:45.868Z,18.20
2024-01-01T18:47:12.755Z,18.10
2024-01-01T18:49:39.817Z,19.20
2024-01-01T18:52:07.128Z,19.60
2024-01-01T18:54:33.853Z,19.20
2024-01-01T18:57:00.664Z,18.40
2024-01-01T18:59:27.482Z,20.60
2024-01-01T19:01:54.865Z,21.40
2024-01-01T19:04:21.823Z,20.50
2024-01-01T19:06:48.948Z,21.70
2024-01-01T19:09:15.691Z,20.80
2024-01-01T19:11:43.160Z,18.60
2024-01-01T19:14:14.655Z,33.20
2024-01-01T19:16:41.953Z,31.00
2024-01-01T19:19:09.519Z,21.90
2024-01-01T19:21:43.315Z,18.70
2024-01-01T19:24:17.210Z,19.60
2024-01-01T19:26:47.711Z,21.60
2024-01-01T19:29:15.408Z,17.80
2024-01-01T19:31:43.635Z,22.70
2024-01-01T19:34:11.224Z,20.70
2024-01-01T19:36:38.343Z,19.00
2024-01-01T19:39:06.296Z,19.70
2024-01-01T19:41:33.609Z,19.70
2024-01-01T19:44:02.422Z,22.10
2024-01-01T19:46:29.553Z,19.10
2024-01-01T19:48:58.530Z,20.00
2024-01-01T19:51:25.635Z,23.00
2024-01-01T19:53:52.626Z,25.40
2024-01-01T19:56:26.635Z,23.60
2024-01-01T19:58:53.578Z,23.10
2024-01-01T20:01:20.969Z,22.60
2024-01-01T20:03:47.974Z,23.80
2024-01-01T20:06:14.891Z,20.90
2024-01-01T20:08:41.830Z,20.70
2024-01-01T20:11:09.331Z,20.80
2024-01-01T20:13:39.856Z,22.30
2024-01-01T20:16:06.927Z,24.20
2024-01-01T20:18:35.959Z,19.00
2024-01-01T20:21:02.918Z,18.30
2024-01-01T20:23:29.893Z,17.90
2024-01-01T20:25:56.788Z,24.70
2024-01-01T20:28:23.509Z,20.80
2024-01-01T20:30:50.461Z,17.30
2024-01-01T20:33:17.526Z,20.20
2024-01-01T20:35:44.318Z,16.90
2024-01-01T20:38:11.758Z,20.30
2024-01-01T20:40:38.529Z,16.50
2024-01-01T20:43:05.331Z,19.00
2024-01-01T20:45:32.291Z,17.00
2024-01-01T20:47:59.839Z,17.30
2024-01-01T20:50:26.736Z,17.20
2024-01-01T20:52:56.485Z,15.00
2024-01-01T20:55:25.432Z,17.20
2024-01-01T20:57:52.217Z,16.00
2024-01-01T21:00:19.904Z,15.80
2024-01-01T21:02:46.726Z,15.90
2024-01-01T21:05:14.405Z,16.50
2024-01-01T21:07:44.303Z,17.60
2024-01-01T21:10:11.918Z,14.80
2024-01-01T21:12:40.922Z,18.60
2024-01-01T21:15:13.002Z,13.70
2024-01-01T21:17:42.529Z,13.20
2024-01-01T21:20:10.334Z,16.40
2024-01-01T21:22:37.120Z,14.20
2024-01-01T21:25:04.818Z,13.10
2024-01-01T21:27:31.577Z,12.30
2024-01-01T21:29:58.425Z,14.80
2024-01-01T21:32:25.354Z,15.20
2024-01-01T21:34:52.532Z,15.80
2024-01-01T21:37:19.511Z,11.60
2024-01-01T21:39:46.419Z,16.20
2024-01-01T21:42:13.114Z,15.70
2024-01-01T21:44:39.864Z,15.80
2024-01-01T21:47:07.940Z,12.90
2024-01-01T21:49:34.686Z,13.10
2024-01-01T21:52:01.672Z,15.00
2024-01-01T21:54:28.739Z,13.40
2024-01-01T21:56:55.419Z,22.70
2024-01-01T21:59:22.306Z,14.30
2024-01-01T22:01:49.383Z,11.80
2024-01-01T22:04:16.271Z,11.90
2024-01-01T22:06:44.126Z,13.20
2024-01-01T22:09:11.744Z,11.80
2024-01-01T22:11:38.492Z,15.20
2024-01-01T22:14:05.350Z,14.20
2024-01-01T22:16:32.109Z,14.20
2024-01-01T22:18:58.940Z,13.60
2024-01-01T22:21:26.176Z,13.70
2024-01-01T22:23:52.976Z,13.00
2024-01-01T22:26:20.614Z,14.30
2024-01-01T22:28:47.951Z,12.30
2024-01-01T22:31:18.449Z,15.00
2024-01-01T22:33:45.453Z,10.80
2024-01-01T22:36:12.291Z,14.50
2024-01-01T22:38:44.274Z,13.00
2024-01-01T22:41:11.001Z,15.00
2024-01-01T22:43:37.817Z,14.70
2024-01-01T22:46:05.469Z,15.10
2024-01-01T22:48:33.110Z,14.20
2024-01-01T22:51:00.074Z,15.20
2024-01-01T22:53:27.226Z,16.10
2024-01-01T22:55:54.132Z,14.90
2024-01-01T22:58:20.977Z,11.80
2024-01-01T23:00:50.580Z,14.40
2024-01-01T23:03:17.402Z,13.10
2024-01-01T23:05:44.289Z,13.60
2024-01-01T23:08:11.290Z,14.00
2024-01-01T23:10:38.070Z,13.50
2024-01-01T23:13:04.999Z,12.80
2024-01-01T23:15:32.180Z,12.10
2024-01-01T23:18:01.112Z,14.20
2024-01-01T23:20:27.898Z,12.20
2024-01-01T23:22:56.264Z,11.70
2024-01-01T23:25:23.453Z,11.60
2024-01-01T23:27:50.979Z,14.80
2024-01-01T23:30:19.157Z,14.10
2024-01-01T23:32:47.063Z,12.10
2024-01-01T23:35:14.041Z,11.70
2024-01-01T23:37:41.740Z,14.10
2024-01-01T23:40:14.216Z,12.20
2024-01-01T23:42:40.963Z,13.50
2024-01-01T23:45:08.385Z,13.20
2024-01-01T23:47:35.285Z,12.10
2024-01-01T23:50:02.081Z,14.10
2024-01-01T23:52:29.046Z,11.00
2024-01-01T23:54:55.987Z,14.50
2024-01-01T23:57:22.728Z,11.50
2024-01-01T23:59:49.606Z,15.50
